createdAt,value
2022-12-06T00:02:13.692Z,6.20
2022-12-06T00:04:41.207Z,6.30
2022-12-06T00:07:23.238Z,6.20
2022-12-06T00:09:51.425Z,6.20
2022-12-06T00:12:18.381Z,6.30
2022-12-06T00:14:45.487Z,6.20
2022-12-06T00:17:18.219Z,6.10
2022-12-06T00:19:50.983Z,6.10
2022-12-06T00:22:20.366Z,6.10
2022-12-06T00:24:47.415Z,6.20
2022-12-06T00:27:14.337Z,6.20
2022-12-06T00:29:46.837Z,6.30
2022-12-06T00:32:19.887Z,6.30
2022-12-06T00:34:47.196Z,6.30
2022-12-06T00:37:17.018Z,6.30
2022-12-06T00:39:55.349Z,6.20
2022-12-06T00:42:27.044Z,6.10
2022-12-06T00:45:03.061Z,6.10
2022-12-06T00:47:41.346Z,6.00
2022-12-06T00:50:15.985Z,6.00
2022-12-06T00:55:49.891Z,6.20
2022-12-06T00:58:19.915Z,6.10
2022-12-06T01:00:53.468Z,6.20
2022-12-06T01:03:23.440Z,6.20
2022-12-06T01:05:53.276Z,6.20
2022-12-06T01:08:27.610Z,6.20
2022-12-06T01:10:56.850Z,6.20
2022-12-06T01:13:35.070Z,6.20
2022-12-06T01:16:23.741Z,6.20
2022-12-06T01:19:00.777Z,6.20
2022-12-06T01:21:42.813Z,6.10
2022-12-06T01:24:21.657Z,6.10
2022-12-06T01:26:51.217Z,6.00
2022-12-06T01:29:41.201Z,6.00
2022-12-06T01:32:11.348Z,6.00
2022-12-06T01:34:49.676Z,6.00
2022-12-06T01:37:20.415Z,6.00
2022-12-06T01:39:52.195Z,6.00
2022-12-06T01:42:36.169Z,5.90
2022-12-06T01:45:09.199Z,5.90
2022-12-06T01:47:44.351Z,5.90
2022-12-06T01:50:31.566Z,5.80
2022-12-06T01:53:08.821Z,5.80
2022-12-06T01:55:41.385Z,5.80
2022-12-06T01:58:24.132Z,5.90
2022-12-06T02:00:59.125Z,5.80
2022-12-06T02:03:35.364Z,5.90
2022-12-06T02:06:14.378Z,5.90
2022-12-06T02:08:51.802Z,5.90
2022-12-06T02:11:20.533Z,5.70
2022-12-06T02:13:54.085Z,5.70
2022-12-06T02:16:55.630Z,5.70
2022-12-06T02:19:52.777Z,5.80
2022-12-06T02:22:41.523Z,5.80
2022-12-06T02:25:43.474Z,5.80
2022-12-06T02:28:50.156Z,5.80
2022-12-06T02:31:32.480Z,5.90
2022-12-06T02:34:11.814Z,5.90
2022-12-06T02:36:54.239Z,5.80
2022-12-06T02:39:39.078Z,5.60
2022-12-06T02:42:13.389Z,5.70
2022-12-06T02:44:52.142Z,5.60
2022-12-06T02:47:30.785Z,5.70
2022-12-06T02:50:01.896Z,5.60
2022-12-06T02:52:36.118Z,5.70
2022-12-06T02:55:08.297Z,5.70
2022-12-06T02:57:43.658Z,5.60
2022-12-06T03:00:34.962Z,5.70
2022-12-06T03:04:02.831Z,5.70
2022-12-06T03:07:04.296Z,5.70
2022-12-06T03:10:06.531Z,5.70
2022-12-06T03:13:00.560Z,5.70
2022-12-06T03:18:59.705Z,5.70
2022-12-06T03:21:34.662Z,5.60
2022-12-06T03:24:08.511Z,5.60
2022-12-06T03:26:51.608Z,5.60
2022-12-06T03:29:29.237Z,5.50
2022-12-06T03:32:13.906Z,5.50
2022-12-06T03:34:50.018Z,5.50
2022-12-06T03:37:27.776Z,5.60
2022-12-06T03:43:01.599Z,5.40
2022-12-06T03:45:40.948Z,5.50
2022-12-06T03:48:12.967Z,5.50
2022-12-06T03:50:47.745Z,5.60
2022-12-06T03:53:25.588Z,5.60
2022-12-06T03:56:00.155Z,5.70
2022-12-06T03:58:27.276Z,5.80
2022-12-06T04:00:58.042Z,5.70
2022-12-06T04:03:36.151Z,5.70
2022-12-06T04:06:12.268Z,5.70
2022-12-06T04:08:57.030Z,5.70
2022-12-06T04:11:31.944Z,5.60
2022-12-06T04:14:13.924Z,5.40
2022-12-06T04:17:03.838Z,5.50
2022-12-06T04:19:38.301Z,5.60
2022-12-06T04:22:26.839Z,5.70
2022-12-06T04:24:58.420Z,5.70
2022-12-06T04:27:47.250Z,5.70
2022-12-06T04:30:35.842Z,5.70
2022-12-06T04:33:38.053Z,5.70
2022-12-06T04:36:27.268Z,5.60
2022-12-06T04:38:57.477Z,5.70
2022-12-06T04:41:46.510Z,5.70
2022-12-06T04:44:16.618Z,5.70
2022-12-06T04:46:45.472Z,5.70
2022-12-06T04:49:15.710Z,5.70
2022-12-06T04:51:45.791Z,5.70
2022-12-06T04:54:17.964Z,5.70
2022-12-06T04:56:51.454Z,5.60
2022-12-06T04:59:24.485Z,5.60
2022-12-06T05:01:51.631Z,5.70
2022-12-06T05:04:27.675Z,5.70
2022-12-06T05:07:05.892Z,5.70
2022-12-06T05:09:45.683Z,5.70
2022-12-06T05:12:14.002Z,5.70
2022-12-06T05:15:09.655Z,5.60
2022-12-06T05:17:48.762Z,5.60
2022-12-06T05:20:18.594Z,5.60
2022-12-06T05:22:48.494Z,5.50
2022-12-06T05:25:22.159Z,5.40
2022-12-06T05:27:53.316Z,5.50
2022-12-06T05:30:37.920Z,5.40
2022-12-06T05:33:09.343Z,5.50
2022-12-06T05:35:41.176Z,5.40
2022-12-06T05:38:11.614Z,5.50
2022-12-06T05:40:48.429Z,5.50
2022-12-06T05:43:17.215Z,5.50
2022-12-06T05:45:58.134Z,5.40
2022-12-06T05:48:29.052Z,5.40
2022-12-06T05:51:00.491Z,5.50
2022-12-06T05:53:29.081Z,5.60
2022-12-06T05:56:12.654Z,5.40
2022-12-06T05:58:44.016Z,5.40
2022-12-06T06:01:19.114Z,5.50
2022-12-06T06:03:53.565Z,5.50
2022-12-06T06:06:23.889Z,5.60
2022-12-06T06:08:57.272Z,5.60
2022-12-06T06:11:31.723Z,5.60
2022-12-06T06:14:02.850Z,5.70
2022-12-06T06:16:33.593Z,5.70
2022-12-06T06:19:04.134Z,5.70
2022-12-06T06:21:33.476Z,5.60
2022-12-06T06:24:00.650Z,5.60
2022-12-06T06:26:27.658Z,5.70
2022-12-06T06:29:06.280Z,5.70
2022-12-06T06:31:38.158Z,5.70
2022-12-06T06:34:20.904Z,5.80
2022-12-06T06:37:04.366Z,5.80
2022-12-06T06:39:42.629Z,5.70
2022-12-06T06:42:18.619Z,5.70
2022-12-06T06:45:05.133Z,5.70
2022-12-06T06:47:32.007Z,5.80
2022-12-06T06:50:12.247Z,5.70
2022-12-06T06:52:39.280Z,5.90
2022-12-06T06:55:09.569Z,5.80
2022-12-06T06:57:38.264Z,5.90
2022-12-06T07:00:08.927Z,5.80
2022-12-06T07:02:41.064Z,5.90
2022-12-06T07:05:08.598Z,5.80
2022-12-06T07:07:42.716Z,5.70
2022-12-06T07:10:15.777Z,5.80
2022-12-06T07:12:46.846Z,5.70
2022-12-06T07:15:17.561Z,5.90
2022-12-06T07:17:46.035Z,5.90
2022-12-06T07:20:13.827Z,5.90
2022-12-06T07:22:43.240Z,5.90
2022-12-06T07:25:12.794Z,5.90
2022-12-06T07:27:42.615Z,5.80
2022-12-06T07:30:29.817Z,5.80
2022-12-06T07:33:04.053Z,5.90
2022-12-06T07:36:11.047Z,6.00
2022-12-06T07:38:32.924Z,5.90
2022-12-06T07:41:35.315Z,5.90
2022-12-06T07:44:37.612Z,5.90
2022-12-06T07:47:17.491Z,5.90
2022-12-06T07:49:54.685Z,5.90
2022-12-06T07:52:24.124Z,5.90
2022-12-06T07:55:00.706Z,5.90
2022-12-06T07:57:34.543Z,5.90
2022-12-06T08:00:09.014Z,5.90
2022-12-06T08:02:44.718Z,5.90
2022-12-06T08:05:19.814Z,5.90
2022-12-06T08:07:49.129Z,5.80
2022-12-06T08:10:21.140Z,5.80
2022-12-06T08:12:55.193Z,5.80
2022-12-06T08:15:24.034Z,5.80
2022-12-06T08:18:04.355Z,5.80
2022-12-06T08:20:31.503Z,5.80
2022-12-06T08:23:09.423Z,5.80
2022-12-06T08:25:39.172Z,5.90
2022-12-06T08:28:08.500Z,5.90
2022-12-06T08:30:43.065Z,5.80
2022-12-06T08:33:12.547Z,5.90
2022-12-06T08:35:44.086Z,5.90
2022-12-06T08:38:15.673Z,5.90
2022-12-06T08:40:45.338Z,5.90
2022-12-06T08:43:15.216Z,5.90
2022-12-06T08:45:58.606Z,5.90
2022-12-06T08:48:35.298Z,5.80
2022-12-06T08:51:08.098Z,5.90
2022-12-06T08:53:35.043Z,5.90
2022-12-06T08:56:15.726Z,5.90
2022-12-06T08:58:48.470Z,5.90
2022-12-06T09:01:26.539Z,5.90
2022-12-06T09:03:59.109Z,5.80
2022-12-06T09:06:31.701Z,5.80
2022-12-06T09:09:04.669Z,5.90
2022-12-06T09:11:36.579Z,5.90
2022-12-06T09:14:21.124Z,5.80
2022-12-06T09:16:52.526Z,5.90
2022-12-06T09:19:24.181Z,5.90
2022-12-06T09:22:01.437Z,6.00
2022-12-06T09:24:40.395Z,6.00
2022-12-06T09:27:09.587Z,6.00
2022-12-06T09:29:45.302Z,6.00
2022-12-06T09:32:14.755Z,6.00
2022-12-06T09:34:44.908Z,6.10
2022-12-06T09:37:24.945Z,6.20
2022-12-06T09:40:04.122Z,6.30
2022-12-06T09:43:07.871Z,6.40
2022-12-06T09:45:56.930Z,6.30
2022-12-06T09:49:07.259Z,6.30
2022-12-06T09:52:21.415Z,6.40
2022-12-06T09:55:20.114Z,6.40
2022-12-06T09:57:56.268Z,6.50
2022-12-06T10:00:35.632Z,6.40
2022-12-06T10:03:37.871Z,6.50
2022-12-06T10:06:15.074Z,6.50
2022-12-06T10:09:08.881Z,6.60
2022-12-06T10:12:01.344Z,6.60
2022-12-06T10:14:50.930Z,6.60
2022-12-06T10:17:37.443Z,6.60
2022-12-06T10:20:32.317Z,6.70
2022-12-06T10:23:19.596Z,6.70
2022-12-06T10:25:59.138Z,6.70
2022-12-06T10:28:51.126Z,6.70
2022-12-06T10:31:31.153Z,6.70
2022-12-06T10:34:21.180Z,6.70
2022-12-06T10:37:01.427Z,6.80
2022-12-06T10:39:52.210Z,6.80
2022-12-06T10:42:34.692Z,6.80
2022-12-06T10:45:27.662Z,6.80
2022-12-06T10:48:01.542Z,6.80
2022-12-06T10:50:35.178Z,6.80
2022-12-06T10:53:19.900Z,6.80
2022-12-06T10:56:03.970Z,6.80
2022-12-06T10:58:44.832Z,6.80
2022-12-06T11:01:25.847Z,6.90
2022-12-06T11:04:03.625Z,6.90
2022-12-06T11:06:37.374Z,6.80
2022-12-06T11:09:17.084Z,6.90
2022-12-06T11:11:49.342Z,6.90
2022-12-06T11:14:25.722Z,6.90
2022-12-06T11:17:12.067Z,7.00
2022-12-06T11:19:44.930Z,6.90
2022-12-06T11:22:29.369Z,6.90
2022-12-06T11:25:14.820Z,7.00
2022-12-06T11:27:58.505Z,7.00
2022-12-06T11:30:37.324Z,7.00
2022-12-06T11:33:12.326Z,7.00
2022-12-06T11:35:46.217Z,7.00
2022-12-06T11:38:19.322Z,6.90
2022-12-06T11:40:52.802Z,7.00
2022-12-06T11:43:35.876Z,7.00
2022-12-06T11:46:15.770Z,7.00
2022-12-06T11:48:48.114Z,7.00
2022-12-06T11:51:23.824Z,7.10
2022-12-06T11:54:01.148Z,7.00
2022-12-06T11:56:40.397Z,7.00
2022-12-06T11:59:31.955Z,7.00
2022-12-06T12:02:31.278Z,7.10
2022-12-06T12:05:10.757Z,7.10
2022-12-06T12:07:49.329Z,7.00
2022-12-06T12:10:41.598Z,7.00
2022-12-06T12:13:40.205Z,7.20
2022-12-06T12:16:18.231Z,7.20
2022-12-06T12:19:03.076Z,7.30
2022-12-06T12:21:39.665Z,7.20
2022-12-06T12:27:48.872Z,7.20
2022-12-06T12:30:35.579Z,7.20
2022-12-06T12:33:24.501Z,7.20
2022-12-06T12:36:17.865Z,7.20
2022-12-06T12:38:57.287Z,7.20
2022-12-06T12:41:39.032Z,7.20
2022-12-06T12:44:38.825Z,7.20
2022-12-06T12:47:23.641Z,7.20
2022-12-06T12:50:27.875Z,7.20
2022-12-06T12:53:03.152Z,7.10
2022-12-06T12:55:41.535Z,7.10
2022-12-06T12:58:14.352Z,7.00
2022-12-06T13:00:48.741Z,7.00
2022-12-06T13:03:49.614Z,6.90
2022-12-06T13:06:23.920Z,7.00
2022-12-06T13:08:57.657Z,7.00
2022-12-06T13:11:28.324Z,6.90
2022-12-06T13:14:02.009Z,6.90
2022-12-06T13:16:35.398Z,6.90
2022-12-06T13:19:09.409Z,6.90
2022-12-06T13:21:44.931Z,6.90
2022-12-06T13:24:24.441Z,7.00
2022-12-06T13:27:07.397Z,7.00
2022-12-06T13:29:41.812Z,7.00
2022-12-06T13:32:20.855Z,7.00
2022-12-06T13:34:57.389Z,7.00
2022-12-06T13:37:35.560Z,7.00
2022-12-06T13:40:32.504Z,7.00
2022-12-06T13:43:03.017Z,6.90
2022-12-06T13:45:48.614Z,6.90
2022-12-06T13:48:43.600Z,6.90
2022-12-06T13:51:40.771Z,6.90
2022-12-06T13:54:33.828Z,6.90
2022-12-06T13:57:30.548Z,6.90
2022-12-06T14:00:00.346Z,6.80
2022-12-06T14:02:58.778Z,6.80
2022-12-06T14:06:14.795Z,6.80
2022-12-06T14:08:45.185Z,6.80
2022-12-06T14:11:27.961Z,6.80
2022-12-06T14:14:15.983Z,6.70
2022-12-06T14:16:58.320Z,6.70
2022-12-06T14:19:39.581Z,6.70
2022-12-06T14:22:27.848Z,6.70
2022-12-06T14:25:19.454Z,6.80
2022-12-06T14:28:06.376Z,6.70
2022-12-06T14:30:39.310Z,6.60
2022-12-06T14:33:26.310Z,6.70
2022-12-06T14:35:56.252Z,6.60
2022-12-06T14:38:32.355Z,6.70
2022-12-06T14:41:18.339Z,6.70
2022-12-06T14:43:55.793Z,6.70
2022-12-06T14:46:31.995Z,6.80
2022-12-06T14:49:17.789Z,6.80
2022-12-06T14:51:50.891Z,6.70
2022-12-06T14:54:27.855Z,6.80
2022-12-06T14:57:04.469Z,6.80
2022-12-06T15:00:14.390Z,6.80
2022-12-06T15:02:37.997Z,6.70
2022-12-06T15:05:35.882Z,6.70
2022-12-06T15:08:33.546Z,6.70
2022-12-06T15:11:40.468Z,6.80
2022-12-06T15:14:22.058Z,6.70
2022-12-06T15:17:03.330Z,6.80
2022-12-06T15:19:55.537Z,6.80
2022-12-06T15:22:28.448Z,6.80
2022-12-06T15:24:59.837Z,6.80
2022-12-06T15:27:31.663Z,6.80
2022-12-06T15:29:58.826Z,6.80
2022-12-06T15:32:36.733Z,6.80
2022-12-06T15:35:18.389Z,6.70
2022-12-06T15:37:52.459Z,6.70
2022-12-06T15:40:26.725Z,6.70
2022-12-06T15:43:26.499Z,6.70
2022-12-06T15:45:57.724Z,6.60
2022-12-06T15:48:38.104Z,6.70
2022-12-06T15:51:21.205Z,6.70
2022-12-06T15:53:54.454Z,6.70
2022-12-06T15:56:39.210Z,6.70
2022-12-06T15:59:32.718Z,6.70
2022-12-06T16:02:17.799Z,6.70
2022-12-06T16:04:49.683Z,6.70
2022-12-06T16:07:19.056Z,6.60
2022-12-06T16:12:53.905Z,6.60
2022-12-06T16:15:31.878Z,6.60
2022-12-06T16:18:00.703Z,6.60
2022-12-06T16:20:31.772Z,6.60
2022-12-06T16:23:17.807Z,6.60
2022-12-06T16:25:49.891Z,6.60
2022-12-06T16:28:17.184Z,6.70
2022-12-06T16:30:52.528Z,6.80
2022-12-06T16:33:29.449Z,6.70
2022-12-06T16:36:29.757Z,6.70
2022-12-06T16:39:15.697Z,6.70
2022-12-06T16:41:59.874Z,6.70
2022-12-06T16:44:32.678Z,6.70
2022-12-06T16:47:15.976Z,6.60
2022-12-06T16:50:00.621Z,6.60
2022-12-06T16:52:40.135Z,6.60
2022-12-06T16:55:16.896Z,6.60
2022-12-06T16:57:54.186Z,6.60
2022-12-06T17:03:29.851Z,6.50
2022-12-06T17:06:03.177Z,6.60
2022-12-06T17:08:31.794Z,6.50
2022-12-06T17:11:21.164Z,6.50
2022-12-06T17:14:10.032Z,6.50
2022-12-06T17:16:45.696Z,6.50
2022-12-06T17:19:19.587Z,6.50
2022-12-06T17:21:47.197Z,6.50
2022-12-06T17:24:26.715Z,6.60
2022-12-06T17:26:59.471Z,6.50
2022-12-06T17:29:32.444Z,6.50
2022-12-06T17:32:10.836Z,6.50
2022-12-06T17:34:43.783Z,6.60
2022-12-06T17:37:21.510Z,6.50
2022-12-06T17:39:52.367Z,6.50
2022-12-06T17:42:50.934Z,6.50
2022-12-06T17:45:25.720Z,6.50
2022-12-06T17:48:11.753Z,6.60
2022-12-06T17:50:43.264Z,6.50
2022-12-06T17:53:24.353Z,6.40
2022-12-06T17:56:02.116Z,6.40
2022-12-06T17:58:34.544Z,6.40
2022-12-06T18:01:16.160Z,6.50
2022-12-06T18:03:46.827Z,6.50
2022-12-06T18:06:16.821Z,6.40
2022-12-06T18:08:43.792Z,6.50
2022-12-06T18:11:15.194Z,6.50
2022-12-06T18:13:51.462Z,6.50
2022-12-06T18:16:30.755Z,6.50
2022-12-06T18:19:08.477Z,6.40
2022-12-06T18:21:46.206Z,6.30
2022-12-06T18:24:22.184Z,6.40
2022-12-06T18:26:56.642Z,6.40
2022-12-06T18:29:27.346Z,6.40
2022-12-06T18:31:57.436Z,6.40
2022-12-06T18:34:27.946Z,6.30
2022-12-06T18:37:03.568Z,6.30
2022-12-06T18:39:40.342Z,6.40
2022-12-06T18:42:08.644Z,6.40
2022-12-06T18:44:51.443Z,6.50
2022-12-06T18:47:26.124Z,6.40
2022-12-06T18:50:02.024Z,6.40
2022-12-06T18:52:47.540Z,6.40
2022-12-06T18:55:29.374Z,6.40
2022-12-06T18:58:14.721Z,6.40
2022-12-06T19:00:58.580Z,6.40
2022-12-06T19:03:29.434Z,6.30
2022-12-06T19:06:03.812Z,6.30
2022-12-06T19:08:39.127Z,6.20
2022-12-06T19:11:18.374Z,6.30
2022-12-06T19:13:55.929Z,6.30
2022-12-06T19:16:29.189Z,6.30
2022-12-06T19:18:59.108Z,6.20
2022-12-06T19:21:34.515Z,6.00
2022-12-06T19:24:10.521Z,6.00
2022-12-06T19:26:52.800Z,5.90
2022-12-06T19:29:26.634Z,5.90
2022-12-06T19:31:55.317Z,5.80
2022-12-06T19:34:26.775Z,5.80
2022-12-06T19:36:57.956Z,5.70
2022-12-06T19:39:26.933Z,5.70
2022-12-06T19:42:18.237Z,5.70
2022-12-06T19:45:22.203Z,5.50
2022-12-06T19:48:03.975Z,5.40
2022-12-06T19:50:36.451Z,5.50
2022-12-06T19:53:07.916Z,5.60
2022-12-06T19:59:01.037Z,5.60
2022-12-06T20:01:40.143Z,5.70
2022-12-06T20:04:16.837Z,5.80
2022-12-06T20:06:46.431Z,5.90
2022-12-06T20:09:24.019Z,5.90
2022-12-06T20:12:04.268Z,6.00
2022-12-06T20:14:43.568Z,6.00
2022-12-06T20:17:25.847Z,6.00
2022-12-06T20:19:59.470Z,5.90
2022-12-06T20:22:37.997Z,5.80
2022-12-06T20:25:13.958Z,5.80
2022-12-06T20:27:57.639Z,5.70
2022-12-06T20:30:30.609Z,5.60
2022-12-06T20:36:22.393Z,5.70
2022-12-06T20:38:59.006Z,5.70
2022-12-06T20:41:30.375Z,5.70
2022-12-06T20:44:08.387Z,5.70
2022-12-06T20:46:41.844Z,5.60
2022-12-06T20:49:10.358Z,5.60
2022-12-06T20:51:45.740Z,5.60
2022-12-06T20:54:15.273Z,5.60
2022-12-06T20:56:58.708Z,5.50
2022-12-06T20:59:34.083Z,5.50
2022-12-06T21:02:06.258Z,5.50
2022-12-06T21:04:38.718Z,5.50
2022-12-06T21:07:14.223Z,5.40
2022-12-06T21:09:53.619Z,5.40
2022-12-06T21:12:31.456Z,5.30
2022-12-06T21:15:01.248Z,5.30
2022-12-06T21:17:30.945Z,5.30
2022-12-06T21:19:59.687Z,5.30
2022-12-06T21:22:34.178Z,5.30
2022-12-06T21:25:01.218Z,5.30
2022-12-06T21:27:31.962Z,5.40
2022-12-06T21:30:07.635Z,5.20
2022-12-06T21:32:39.699Z,4.80
2022-12-06T21:35:13.318Z,4.70
2022-12-06T21:37:45.979Z,4.70
2022-12-06T21:40:13.496Z,4.90
2022-12-06T21:42:53.908Z,4.80
2022-12-06T21:45:21.127Z,4.80
2022-12-06T21:48:00.865Z,4.60
2022-12-06T21:50:37.080Z,4.40
2022-12-06T21:53:15.152Z,4.30
2022-12-06T21:55:46.367Z,4.30
2022-12-06T21:58:16.451Z,4.40
2022-12-06T22:00:48.588Z,4.50
2022-12-06T22:03:44.477Z,4.50
2022-12-06T22:06:23.339Z,4.60
2022-12-06T22:09:05.635Z,4.60
2022-12-06T22:11:55.629Z,4.70
2022-12-06T22:14:22.612Z,4.60
2022-12-06T22:16:54.604Z,4.60
2022-12-06T22:19:36.217Z,4.40
2022-12-06T22:22:07.345Z,4.50
2022-12-06T22:24:36.201Z,4.60
2022-12-06T22:27:03.249Z,4.60
2022-12-06T22:29:34.495Z,4.50
2022-12-06T22:32:03.561Z,4.40
2022-12-06T22:34:32.698Z,4.30
2022-12-06T22:37:08.705Z,4.30
2022-12-06T22:39:46.068Z,4.20
2022-12-06T22:42:40.623Z,4.10
2022-12-06T22:45:19.241Z,4.10
2022-12-06T22:47:55.326Z,4.10
2022-12-06T22:50:26.722Z,4.10
2022-12-06T22:53:01.953Z,4.20
2022-12-06T22:55:31.555Z,4.30
2022-12-06T22:57:58.740Z,4.30
2022-12-06T23:00:28.759Z,4.10
2022-12-06T23:03:17.114Z,4.00
2022-12-06T23:06:00.312Z,3.80
2022-12-06T23:08:48.836Z,3.80
2022-12-06T23:11:41.496Z,3.70
2022-12-06T23:14:18.602Z,3.80
2022-12-06T23:16:48.745Z,3.80
2022-12-06T23:19:38.217Z,3.70
2022-12-06T23:22:18.258Z,3.70
2022-12-06T23:25:04.216Z,3.70
2022-12-06T23:27:38.335Z,3.80
2022-12-06T23:30:07.452Z,3.80
2022-12-06T23:32:38.046Z,3.70
2022-12-06T23:35:09.761Z,3.70
2022-12-06T23:37:37.929Z,3.70
2022-12-06T23:40:18.060Z,3.80
2022-12-06T23:42:52.526Z,3.80
2022-12-06T23:45:41.387Z,4.00
2022-12-06T23:48:11.362Z,4.00
2022-12-06T23:50:44.373Z,4.10
2022-12-06T23:53:20.506Z,4.10
2022-12-06T23:55:57.278Z,4.10
2022-12-06T23:58:36.949Z,4.10
